sim
Sign-in with your pilot id or email,
or register
Callsign
Passwort

Schedule Details

Flight Number: RYR7128 (3)
Departure: Dublin Airport (EIDW) at 12:55
Arrival: Fuerteventura Airport (GCFV) at 17:20
Route: Ryanair Passenger Schedule. Enter filed route here before submitting Pirep.

Weather Information
Getting current METAR information for EIDW 211700Z 21015G26KT 180V260 9999 -RA SCT016 BKN040 15/13 Q1017 NOSIG
Getting current METAR information for GCFV 211700Z 05017KT CAVOK 25/20 Q1014

Schedule Frequency

Route Map